createdAt,value
2019-03-27T00:02:09.322Z,99.90
2019-03-27T00:04:37.029Z,99.90
2019-03-27T00:07:04.715Z,99.90
2019-03-27T00:09:32.291Z,99.90
2019-03-27T00:12:00.082Z,99.90
2019-03-27T00:14:28.382Z,99.90
2019-03-27T00:16:56.270Z,99.90
2019-03-27T00:19:23.876Z,99.90
2019-03-27T00:21:51.345Z,99.90
2019-03-27T00:24:19.724Z,99.90
2019-03-27T00:26:47.736Z,99.90
2019-03-27T00:29:15.218Z,99.90
2019-03-27T00:31:43.035Z,99.90
2019-03-27T00:34:10.811Z,99.90
2019-03-27T00:36:38.392Z,99.90
2019-03-27T00:39:06.458Z,99.90
2019-03-27T00:41:34.323Z,99.90
2019-03-27T00:44:02.354Z,99.90
2019-03-27T00:46:29.808Z,99.90
2019-03-27T00:48:58.022Z,99.90
2019-03-27T00:51:25.627Z,99.90
2019-03-27T00:53:53.518Z,99.90
2019-03-27T00:56:21.299Z,99.90
2019-03-27T00:58:49.133Z,99.90
2019-03-27T01:01:18.490Z,99.90
2019-03-27T01:03:47.171Z,99.90
2019-03-27T01:06:14.999Z,99.90
2019-03-27T01:08:43.358Z,99.90
2019-03-27T01:11:11.398Z,99.90
2019-03-27T01:13:39.462Z,99.90
2019-03-27T01:16:07.432Z,99.90
2019-03-27T01:18:35.161Z,99.90
2019-03-27T01:21:03.266Z,99.90
2019-03-27T01:23:31.286Z,99.90
2019-03-27T01:25:59.258Z,99.90
2019-03-27T01:28:27.212Z,99.90
2019-03-27T01:30:55.316Z,99.90
2019-03-27T01:33:22.863Z,99.90
2019-03-27T01:35:51.013Z,99.90
2019-03-27T01:38:18.955Z,99.90
2019-03-27T01:40:47.046Z,99.90
2019-03-27T01:43:15.201Z,99.90
2019-03-27T01:45:52.983Z,99.90
2019-03-27T01:48:14.098Z,99.90
2019-03-27T01:50:41.811Z,99.90
2019-03-27T01:53:09.750Z,99.90
2019-03-27T01:55:37.582Z,99.90
2019-03-27T01:58:05.226Z,99.90
2019-03-27T02:00:33.063Z,99.90
2019-03-27T02:03:00.918Z,99.90
2019-03-27T02:05:28.417Z,99.90
2019-03-27T02:07:56.130Z,99.90
2019-03-27T02:10:24.058Z,99.90
2019-03-27T02:12:51.735Z,99.90
2019-03-27T02:15:19.528Z,99.90
2019-03-27T02:17:47.351Z,99.90
2019-03-27T02:20:15.460Z,99.90
2019-03-27T02:22:44.038Z,99.90
2019-03-27T02:25:12.019Z,99.90
2019-03-27T02:27:40.158Z,99.90
2019-03-27T02:30:08.117Z,99.90
2019-03-27T02:32:35.594Z,99.90
2019-03-27T02:35:03.914Z,99.90
2019-03-27T02:37:32.269Z,99.90
2019-03-27T02:39:59.883Z,99.90
2019-03-27T02:42:28.210Z,99.90
2019-03-27T02:44:56.520Z,99.90
2019-03-27T02:47:24.252Z,99.90
2019-03-27T02:49:52.284Z,99.90
2019-03-27T02:52:20.263Z,99.90
2019-03-27T02:54:47.715Z,99.90
2019-03-27T02:57:16.463Z,99.90
2019-03-27T02:59:44.397Z,99.90
2019-03-27T03:02:12.258Z,99.90
2019-03-27T03:04:40.440Z,99.90
2019-03-27T03:07:08.189Z,99.90
2019-03-27T03:09:36.074Z,99.90
2019-03-27T03:12:04.083Z,99.90
2019-03-27T03:14:31.825Z,99.90
2019-03-27T03:17:00.088Z,99.90
2019-03-27T03:19:28.398Z,99.90
2019-03-27T03:21:56.238Z,99.90
2019-03-27T03:24:23.944Z,99.90
2019-03-27T03:26:51.785Z,99.90
2019-03-27T03:29:19.631Z,99.90
2019-03-27T03:31:48.015Z,99.90
2019-03-27T03:34:16.133Z,99.90
2019-03-27T03:36:44.243Z,99.90
2019-03-27T03:39:12.136Z,99.90
2019-03-27T03:41:40.247Z,99.90
2019-03-27T03:44:08.182Z,99.90
2019-03-27T03:46:36.550Z,99.90
2019-03-27T03:49:04.489Z,99.90
2019-03-27T03:51:32.106Z,99.90
2019-03-27T03:54:01.306Z,99.90
2019-03-27T03:56:31.539Z,99.90
2019-03-27T03:59:00.870Z,99.90
2019-03-27T04:01:29.419Z,99.90
2019-03-27T04:03:57.229Z,99.90
2019-03-27T04:06:24.951Z,99.90
2019-03-27T04:08:52.715Z,99.90
2019-03-27T04:11:20.319Z,99.90
2019-03-27T04:13:47.794Z,99.90
2019-03-27T04:16:16.868Z,99.90
2019-03-27T04:18:44.767Z,99.90
2019-03-27T04:21:12.671Z,99.90
2019-03-27T04:23:40.277Z,99.90
2019-03-27T04:26:10.412Z,99.90
2019-03-27T04:28:38.632Z,99.90
2019-03-27T04:31:06.296Z,99.90
2019-03-27T04:33:34.112Z,99.90
2019-03-27T04:36:01.838Z,99.90
2019-03-27T04:38:29.394Z,99.90
2019-03-27T04:40:57.262Z,99.90
2019-03-27T04:43:24.819Z,99.90
2019-03-27T04:45:53.002Z,99.90
2019-03-27T04:48:20.894Z,99.90
2019-03-27T04:50:48.406Z,99.90
2019-03-27T04:53:16.331Z,99.90
2019-03-27T04:55:43.990Z,99.90
2019-03-27T04:58:11.698Z,99.90
2019-03-27T05:00:39.766Z,99.90
2019-03-27T05:03:07.430Z,99.90
2019-03-27T05:05:35.366Z,99.90
2019-03-27T05:08:03.344Z,99.90
2019-03-27T05:10:31.205Z,99.90
2019-03-27T05:12:58.703Z,99.90
2019-03-27T05:15:26.444Z,99.90
2019-03-27T05:17:54.383Z,99.90
2019-03-27T05:20:22.358Z,99.90
2019-03-27T05:22:50.870Z,99.90
2019-03-27T05:25:19.431Z,99.90
2019-03-27T05:27:47.226Z,99.90
2019-03-27T05:30:22.595Z,99.90
2019-03-27T05:32:50.546Z,99.90
2019-03-27T05:35:18.498Z,99.90
2019-03-27T05:37:46.306Z,99.90
2019-03-27T05:40:14.110Z,99.90
2019-03-27T05:42:42.686Z,99.90
2019-03-27T05:45:10.695Z,99.90
2019-03-27T05:47:38.426Z,99.90
2019-03-27T05:50:06.286Z,99.90
2019-03-27T05:52:35.045Z,99.90
2019-03-27T05:55:03.914Z,99.90
2019-03-27T05:57:32.223Z,99.90
2019-03-27T05:59:59.886Z,99.90
2019-03-27T06:02:27.731Z,99.90
2019-03-27T06:04:55.414Z,99.90
2019-03-27T06:07:23.919Z,99.90
2019-03-27T06:09:52.065Z,99.90
2019-03-27T06:12:19.958Z,99.90
2019-03-27T06:14:47.584Z,99.90
2019-03-27T06:17:16.107Z,99.90
2019-03-27T06:19:44.211Z,99.90
2019-03-27T06:22:14.951Z,99.90
2019-03-27T06:24:41.800Z,99.90
2019-03-27T06:27:10.014Z,99.90
2019-03-27T06:29:37.511Z,99.90
2019-03-27T06:32:05.203Z,99.90
2019-03-27T06:34:32.863Z,99.90
2019-03-27T06:37:00.535Z,99.90
2019-03-27T06:39:28.750Z,99.90
2019-03-27T06:41:57.043Z,99.90
2019-03-27T06:44:24.618Z,99.90
2019-03-27T06:46:52.867Z,99.90
2019-03-27T06:49:20.774Z,99.90
2019-03-27T06:51:48.338Z,99.90
2019-03-27T06:54:16.226Z,99.90
2019-03-27T06:57:01.339Z,99.90
2019-03-27T06:59:29.267Z,99.90
2019-03-27T07:01:57.027Z,99.90
2019-03-27T07:04:24.866Z,99.90
2019-03-27T07:06:52.977Z,99.90
2019-03-27T07:09:42.498Z,99.90
2019-03-27T07:12:20.562Z,99.90
2019-03-27T07:14:40.989Z,99.90
2019-03-27T07:17:08.715Z,99.90
2019-03-27T07:19:37.085Z,99.90
2019-03-27T07:22:04.951Z,99.90
2019-03-27T07:24:33.027Z,99.90
2019-03-27T07:27:01.352Z,99.90
2019-03-27T07:29:29.180Z,99.90
2019-03-27T07:31:56.914Z,99.90
2019-03-27T07:34:24.881Z,99.90
2019-03-27T07:36:56.040Z,99.90
2019-03-27T07:39:22.407Z,99.90
2019-03-27T07:41:50.452Z,99.90
2019-03-27T07:44:18.216Z,99.90
2019-03-27T07:46:45.672Z,99.90
2019-03-27T07:49:13.909Z,99.90
2019-03-27T07:51:41.726Z,99.90
2019-03-27T07:54:11.056Z,99.90
2019-03-27T07:56:38.775Z,99.90
2019-03-27T07:59:06.683Z,99.90
2019-03-27T08:01:35.602Z,99.90
2019-03-27T08:04:03.954Z,99.90
2019-03-27T08:06:31.599Z,99.90
2019-03-27T08:08:59.059Z,99.90
2019-03-27T08:11:26.781Z,99.90
2019-03-27T08:13:54.654Z,99.90
2019-03-27T08:16:23.602Z,99.90
2019-03-27T08:18:52.188Z,99.90
2019-03-27T08:21:20.490Z,99.90
2019-03-27T08:23:48.162Z,98.90
2019-03-27T08:26:16.164Z,97.60
2019-03-27T08:28:44.135Z,96.60
2019-03-27T08:31:11.836Z,97.80
2019-03-27T08:33:39.862Z,96.80
2019-03-27T08:36:07.683Z,96.60
2019-03-27T08:38:35.438Z,96.40
2019-03-27T08:41:03.677Z,96.00
2019-03-27T08:43:31.280Z,93.60
2019-03-27T08:45:59.651Z,93.20
2019-03-27T08:54:14.575Z,92.70
2019-03-27T08:56:42.270Z,92.10
2019-03-27T08:59:10.930Z,92.20
2019-03-27T09:01:38.708Z,91.90
2019-03-27T09:04:06.551Z,90.70
2019-03-27T09:06:34.607Z,91.20
2019-03-27T09:09:04.648Z,92.50
2019-03-27T09:11:32.842Z,91.80
2019-03-27T09:14:01.813Z,92.10
2019-03-27T09:16:29.817Z,90.60
2019-03-27T09:18:57.676Z,91.80
2019-03-27T09:21:26.031Z,94.10
2019-03-27T09:23:54.196Z,93.50
2019-03-27T09:26:21.926Z,91.90
2019-03-27T09:28:50.568Z,91.00
2019-03-27T09:31:18.475Z,92.60
2019-03-27T09:33:46.048Z,92.80
2019-03-27T09:36:13.910Z,92.50
2019-03-27T09:38:43.148Z,91.60
2019-03-27T09:41:10.795Z,89.90
2019-03-27T09:43:39.391Z,86.00
2019-03-27T09:46:07.683Z,84.40
2019-03-27T09:48:35.748Z,83.90
2019-03-27T09:51:03.286Z,80.50
2019-03-27T09:53:31.392Z,78.90
2019-03-27T09:55:59.239Z,74.80
2019-03-27T09:58:27.335Z,73.30
2019-03-27T10:00:57.553Z,72.00
2019-03-27T10:03:25.304Z,75.30
2019-03-27T10:05:52.905Z,69.80
2019-03-27T10:08:21.232Z,66.70
2019-03-27T10:10:49.220Z,71.70
2019-03-27T10:13:17.240Z,69.70
2019-03-27T10:15:45.059Z,66.40
2019-03-27T10:18:12.915Z,67.50
2019-03-27T10:20:41.535Z,65.20
2019-03-27T10:23:09.508Z,65.20
2019-03-27T10:25:37.331Z,65.60
2019-03-27T10:28:05.311Z,63.80
2019-03-27T10:30:33.057Z,64.60
2019-03-27T10:33:00.715Z,66.10
2019-03-27T10:35:28.848Z,62.90
2019-03-27T10:37:57.007Z,62.90
2019-03-27T10:40:24.836Z,63.10
2019-03-27T10:42:52.475Z,61.80
2019-03-27T10:45:20.153Z,63.10
2019-03-27T10:47:47.821Z,67.00
2019-03-27T10:50:18.179Z,62.80
2019-03-27T10:52:47.044Z,64.70
2019-03-27T10:55:14.904Z,65.30
2019-03-27T10:57:43.442Z,63.40
2019-03-27T11:00:11.444Z,66.00
2019-03-27T11:02:40.383Z,69.10
2019-03-27T11:05:08.489Z,69.80
2019-03-27T11:07:36.367Z,69.10
2019-03-27T11:10:04.805Z,64.60
2019-03-27T11:12:33.868Z,61.40
2019-03-27T11:15:01.781Z,63.20
2019-03-27T11:17:29.441Z,63.80
2019-03-27T11:19:57.924Z,62.00
2019-03-27T11:22:25.760Z,61.80
2019-03-27T11:24:53.932Z,55.90
2019-03-27T11:27:21.553Z,56.50
2019-03-27T11:29:49.360Z,54.10
2019-03-27T11:32:18.149Z,54.40
2019-03-27T11:34:46.219Z,53.30
2019-03-27T11:37:14.496Z,54.20
2019-03-27T11:39:42.532Z,52.60
2019-03-27T11:42:10.504Z,51.40
2019-03-27T11:44:38.169Z,53.10
2019-03-27T11:47:06.180Z,53.70
2019-03-27T11:49:33.780Z,56.40
2019-03-27T11:52:01.536Z,52.90
2019-03-27T11:54:29.244Z,54.80
2019-03-27T11:56:57.075Z,54.10
2019-03-27T11:59:24.958Z,55.10
2019-03-27T12:01:52.713Z,55.00
2019-03-27T12:04:21.042Z,56.20
2019-03-27T12:06:48.873Z,56.60
2019-03-27T12:09:16.348Z,56.70
2019-03-27T12:11:44.202Z,55.40
2019-03-27T12:14:12.339Z,57.10
2019-03-27T12:16:40.882Z,59.10
2019-03-27T12:19:08.416Z,58.30
2019-03-27T12:21:36.074Z,57.60
2019-03-27T12:24:05.217Z,59.10
2019-03-27T12:26:33.549Z,60.70
2019-03-27T12:29:01.693Z,60.40
2019-03-27T12:31:30.112Z,62.50
2019-03-27T12:33:58.000Z,60.20
2019-03-27T12:36:25.623Z,57.10
2019-03-27T12:38:53.428Z,57.00
2019-03-27T12:41:21.114Z,53.40
2019-03-27T12:43:49.732Z,52.60
2019-03-27T12:46:17.227Z,50.70
2019-03-27T12:48:45.124Z,50.50
2019-03-27T12:51:13.518Z,49.50
2019-03-27T12:53:41.432Z,47.10
2019-03-27T12:56:10.119Z,48.40
2019-03-27T12:58:38.042Z,48.00
2019-03-27T13:01:05.722Z,46.80
2019-03-27T13:03:33.543Z,45.00
2019-03-27T13:06:02.071Z,46.40
2019-03-27T13:08:30.225Z,46.90
2019-03-27T13:10:57.982Z,49.30
2019-03-27T13:13:26.536Z,50.30
2019-03-27T13:15:54.458Z,51.00
2019-03-27T13:18:22.704Z,49.70
2019-03-27T13:20:50.679Z,49.70
2019-03-27T13:23:19.028Z,50.90
2019-03-27T13:25:46.581Z,51.10
2019-03-27T13:28:15.176Z,50.70
2019-03-27T13:30:42.987Z,49.90
2019-03-27T13:33:11.247Z,48.90
2019-03-27T13:35:39.744Z,48.10
2019-03-27T13:38:08.912Z,49.90
2019-03-27T13:40:36.915Z,49.70
2019-03-27T13:43:05.385Z,49.10
2019-03-27T13:45:33.098Z,49.70
2019-03-27T13:48:01.484Z,52.10
2019-03-27T13:50:29.007Z,53.00
2019-03-27T13:52:56.921Z,53.60
2019-03-27T13:55:24.979Z,54.60
2019-03-27T13:57:53.488Z,55.00
2019-03-27T14:00:21.103Z,55.00
2019-03-27T14:02:48.812Z,57.00
2019-03-27T14:05:16.523Z,58.00
2019-03-27T14:07:45.216Z,57.90
2019-03-27T14:10:14.236Z,56.60
2019-03-27T14:12:41.908Z,57.00
2019-03-27T14:15:10.684Z,54.70
2019-03-27T14:17:38.288Z,54.80
2019-03-27T14:20:07.252Z,54.50
2019-03-27T14:22:34.951Z,53.70
2019-03-27T14:25:04.516Z,51.60
2019-03-27T14:27:33.638Z,50.80
2019-03-27T14:30:01.704Z,47.20
2019-03-27T14:32:29.284Z,50.00
2019-03-27T14:34:57.036Z,49.40
2019-03-27T14:37:25.056Z,47.50
2019-03-27T14:39:52.683Z,48.40
2019-03-27T14:42:20.252Z,49.10
2019-03-27T14:44:48.371Z,49.30
2019-03-27T14:47:16.192Z,49.40
2019-03-27T14:49:44.012Z,51.50
2019-03-27T14:52:12.104Z,51.20
2019-03-27T14:54:40.005Z,52.60
2019-03-27T14:57:07.636Z,53.80
2019-03-27T14:59:35.472Z,53.70
2019-03-27T15:02:04.079Z,55.60
2019-03-27T15:04:31.640Z,56.20
2019-03-27T15:06:59.235Z,55.60
2019-03-27T15:09:27.351Z,57.40
2019-03-27T15:11:54.839Z,57.40
2019-03-27T15:14:22.460Z,56.50
2019-03-27T15:16:50.259Z,57.20
2019-03-27T15:19:17.820Z,58.10
2019-03-27T15:21:45.836Z,57.70
2019-03-27T15:24:13.416Z,58.70
2019-03-27T15:26:41.630Z,58.60
2019-03-27T15:29:09.582Z,59.40
2019-03-27T15:31:49.903Z,60.00
2019-03-27T15:34:17.623Z,58.60
2019-03-27T15:36:45.364Z,57.70
2019-03-27T15:39:13.312Z,57.90
2019-03-27T15:41:44.242Z,58.10
2019-03-27T15:44:12.649Z,60.50
2019-03-27T15:46:40.510Z,60.20
2019-03-27T15:49:08.324Z,60.60
2019-03-27T15:51:38.331Z,60.80
2019-03-27T15:54:06.295Z,62.00
2019-03-27T15:56:34.490Z,60.50
2019-03-27T15:59:02.910Z,60.40
2019-03-27T16:01:31.645Z,60.60
2019-03-27T16:04:00.008Z,61.70
2019-03-27T16:06:29.806Z,61.40
2019-03-27T16:08:57.927Z,61.50
2019-03-27T16:11:25.611Z,61.20
2019-03-27T16:13:53.607Z,62.30
2019-03-27T16:16:21.771Z,63.00
2019-03-27T16:18:49.455Z,64.00
2019-03-27T16:21:17.425Z,62.10
2019-03-27T16:23:45.039Z,61.70
2019-03-27T16:26:12.914Z,62.00
2019-03-27T16:28:40.540Z,63.70
2019-03-27T16:31:08.626Z,64.40
2019-03-27T16:33:36.427Z,64.30
2019-03-27T16:36:04.220Z,64.70
2019-03-27T16:38:31.917Z,66.20
2019-03-27T16:40:59.935Z,66.30
2019-03-27T16:43:28.146Z,66.60
2019-03-27T16:45:55.774Z,67.20
2019-03-27T16:48:23.428Z,66.10
2019-03-27T16:50:51.422Z,67.00
2019-03-27T16:53:19.479Z,68.70
2019-03-27T16:55:47.309Z,68.80
2019-03-27T16:58:15.449Z,70.90
2019-03-27T17:00:43.808Z,72.00
2019-03-27T17:03:11.888Z,71.90
2019-03-27T17:05:52.968Z,72.40
2019-03-27T17:08:09.975Z,74.30
2019-03-27T17:10:37.903Z,74.40
2019-03-27T17:13:06.012Z,75.50
2019-03-27T17:15:34.147Z,76.20
2019-03-27T17:18:02.947Z,75.90
2019-03-27T17:20:31.575Z,74.50
2019-03-27T17:22:59.699Z,75.70
2019-03-27T17:25:27.913Z,76.80
2019-03-27T17:27:56.016Z,76.90
2019-03-27T17:30:24.140Z,78.50
2019-03-27T17:32:51.959Z,79.40
2019-03-27T17:35:19.980Z,80.10
2019-03-27T17:37:47.831Z,82.30
2019-03-27T17:40:15.768Z,84.30
2019-03-27T17:42:43.930Z,84.80
2019-03-27T17:45:12.210Z,85.50
2019-03-27T17:47:40.075Z,86.70
2019-03-27T17:50:08.521Z,87.50
2019-03-27T17:52:38.377Z,88.70
2019-03-27T17:55:06.947Z,90.80
2019-03-27T17:57:35.088Z,91.10
2019-03-27T18:00:24.549Z,91.80
2019-03-27T18:02:52.557Z,92.40
2019-03-27T18:05:20.558Z,92.30
2019-03-27T18:07:48.217Z,92.10
2019-03-27T18:10:16.360Z,92.10
2019-03-27T18:12:45.047Z,92.40
2019-03-27T18:15:12.811Z,92.80
2019-03-27T18:17:40.472Z,92.30
2019-03-27T18:20:29.352Z,92.80
2019-03-27T18:22:57.631Z,92.60
2019-03-27T18:25:25.701Z,92.90
2019-03-27T18:27:53.399Z,93.50
2019-03-27T18:30:21.108Z,93.60
2019-03-27T18:32:49.081Z,94.30
2019-03-27T18:35:17.256Z,94.60
2019-03-27T18:37:45.853Z,94.80
2019-03-27T18:40:13.779Z,95.00
2019-03-27T18:42:42.089Z,95.60
2019-03-27T18:45:09.749Z,96.20
2019-03-27T18:47:37.512Z,96.60
2019-03-27T18:50:06.291Z,97.10
2019-03-27T18:52:34.351Z,97.20
2019-03-27T18:55:02.454Z,98.10
2019-03-27T18:57:30.600Z,98.70
2019-03-27T18:59:58.932Z,99.20
2019-03-27T19:02:26.707Z,99.40
2019-03-27T19:04:55.820Z,99.40
2019-03-27T19:07:23.980Z,99.60
2019-03-27T19:09:51.652Z,99.70
2019-03-27T19:12:19.313Z,99.70
2019-03-27T19:14:47.449Z,99.80
2019-03-27T19:17:15.583Z,99.80
2019-03-27T19:19:43.453Z,99.90
2019-03-27T19:22:11.372Z,99.90
2019-03-27T19:24:39.288Z,99.90
2019-03-27T19:27:08.197Z,99.90
2019-03-27T19:29:36.286Z,99.90
2019-03-27T19:32:04.227Z,99.90
2019-03-27T19:34:32.124Z,99.90
2019-03-27T19:36:59.816Z,99.90
2019-03-27T19:39:27.355Z,99.90
2019-03-27T19:41:55.040Z,99.90
2019-03-27T19:44:22.640Z,99.90
2019-03-27T19:46:50.295Z,99.90
2019-03-27T19:49:17.863Z,99.90
2019-03-27T19:51:45.784Z,99.90
2019-03-27T19:54:26.487Z,99.90
2019-03-27T19:56:44.023Z,99.90
2019-03-27T19:59:11.480Z,99.90
2019-03-27T20:01:39.629Z,99.90
2019-03-27T20:04:07.943Z,99.90
2019-03-27T20:06:36.108Z,99.90
2019-03-27T20:09:05.536Z,99.90
2019-03-27T20:11:33.809Z,99.90
2019-03-27T20:14:01.961Z,99.90
2019-03-27T20:16:29.955Z,99.90
2019-03-27T20:18:57.901Z,99.90
2019-03-27T20:21:25.601Z,99.90
2019-03-27T20:23:53.960Z,99.90
2019-03-27T20:26:22.020Z,99.90
2019-03-27T20:28:50.211Z,99.90
2019-03-27T20:31:19.285Z,99.90
2019-03-27T20:33:47.481Z,99.90
2019-03-27T20:36:16.505Z,99.20
2019-03-27T20:38:44.726Z,99.90
2019-03-27T20:41:12.983Z,98.90
2019-03-27T20:43:41.275Z,99.90
2019-03-27T20:46:09.319Z,99.90
2019-03-27T20:48:37.416Z,99.90
2019-03-27T20:51:04.856Z,99.90
2019-03-27T20:53:32.639Z,99.90
2019-03-27T20:56:00.598Z,99.90
2019-03-27T20:58:29.047Z,99.90
2019-03-27T21:00:57.059Z,99.90
2019-03-27T21:03:24.855Z,99.90
2019-03-27T21:05:52.799Z,99.90
2019-03-27T21:08:20.872Z,99.90
2019-03-27T21:10:48.693Z,99.90
2019-03-27T21:13:16.572Z,99.90
2019-03-27T21:15:45.105Z,99.90
2019-03-27T21:18:13.265Z,99.90
2019-03-27T21:20:41.107Z,99.90
2019-03-27T21:23:09.306Z,99.90
2019-03-27T21:25:36.943Z,99.90
2019-03-27T21:28:24.121Z,99.90
2019-03-27T21:30:52.275Z,99.90
2019-03-27T21:33:20.211Z,99.90
2019-03-27T21:35:47.920Z,99.90
2019-03-27T21:38:15.759Z,99.90
2019-03-27T21:40:43.417Z,99.90
2019-03-27T21:43:11.415Z,99.90
2019-03-27T21:45:39.654Z,99.90
2019-03-27T21:48:07.519Z,99.90
2019-03-27T21:50:35.449Z,99.90
2019-03-27T21:53:03.379Z,99.90
2019-03-27T21:55:42.133Z,99.90
2019-03-27T21:58:02.343Z,99.90
2019-03-27T22:00:37.595Z,99.90
2019-03-27T22:03:05.494Z,99.90
2019-03-27T22:05:34.156Z,99.90
2019-03-27T22:08:02.996Z,99.90
2019-03-27T22:10:30.807Z,99.90
2019-03-27T22:12:59.288Z,99.90
2019-03-27T22:15:27.048Z,99.90
2019-03-27T22:17:55.044Z,99.90
2019-03-27T22:20:23.036Z,99.90
2019-03-27T22:22:50.994Z,99.90
2019-03-27T22:25:19.071Z,99.90
2019-03-27T22:27:47.140Z,99.90
2019-03-27T22:30:15.089Z,99.90
2019-03-27T22:32:42.865Z,99.90
2019-03-27T22:35:10.640Z,99.90
2019-03-27T22:37:38.417Z,99.90
2019-03-27T22:40:06.140Z,99.90
2019-03-27T22:42:35.168Z,99.90
2019-03-27T22:45:03.637Z,99.90
2019-03-27T22:47:31.541Z,99.90
2019-03-27T22:49:59.889Z,99.90
2019-03-27T22:52:28.027Z,99.90
2019-03-27T22:54:55.740Z,99.90
2019-03-27T22:57:23.807Z,99.90
2019-03-27T22:59:51.563Z,99.90
2019-03-27T23:02:20.270Z,99.90
2019-03-27T23:04:49.348Z,99.90
2019-03-27T23:07:17.537Z,99.90
2019-03-27T23:09:45.103Z,99.90
2019-03-27T23:12:13.128Z,99.90
2019-03-27T23:14:40.957Z,99.90
2019-03-27T23:17:08.748Z,99.90
2019-03-27T23:19:36.475Z,99.90
2019-03-27T23:22:04.158Z,99.90
2019-03-27T23:24:31.829Z,99.90
2019-03-27T23:26:59.943Z,99.90
2019-03-27T23:29:27.884Z,99.90
2019-03-27T23:31:55.709Z,99.90
2019-03-27T23:34:23.952Z,99.90
2019-03-27T23:36:52.129Z,99.90
2019-03-27T23:39:19.983Z,99.90
2019-03-27T23:41:47.813Z,99.90
2019-03-27T23:44:16.511Z,99.90
2019-03-27T23:46:44.823Z,99.90
2019-03-27T23:49:12.334Z,99.90
2019-03-27T23:51:40.246Z,99.90
2019-03-27T23:54:08.654Z,99.90
2019-03-27T23:56:37.026Z,99.90
2019-03-27T23:59:04.979Z,99.90
